sensor_id;sensor_type;location;lat;lon;timestamp;P1;durP1;ratioP1;P2;durP2;ratioP2
16845;SDS011;8539;53.188;8.696;2023-12-04T00:02:08;35.55;;;18.75;;
16845;SDS011;8539;53.188;8.696;2023-12-04T00:04:34;40.25;;;20.10;;
16845;SDS011;8539;53.188;8.696;2023-12-04T00:07:00;37.47;;;18.80;;
16845;SDS011;8539;53.188;8.696;2023-12-04T00:09:27;35.65;;;18.77;;
16845;SDS011;8539;53.188;8.696;2023-12-04T00:11:53;34.85;;;19.23;;
16845;SDS011;8539;53.188;8.696;2023-12-04T00:14:20;34.03;;;19.45;;
16845;SDS011;8539;53.188;8.696;2023-12-04T00:16:46;31.60;;;18.55;;
16845;SDS011;8539;53.188;8.696;2023-12-04T00:19:13;38.55;;;18.25;;
16845;SDS011;8539;53.188;8.696;2023-12-04T00:21:39;37.65;;;19.55;;
16845;SDS011;8539;53.188;8.696;2023-12-04T00:24:05;35.97;;;18.50;;
16845;SDS011;8539;53.188;8.696;2023-12-04T00:26:32;34.58;;;20.27;;
16845;SDS011;8539;53.188;8.696;2023-12-04T00:28:58;38.08;;;21.33;;
16845;SDS011;8539;53.188;8.696;2023-12-04T00:31:24;35.90;;;19.38;;
16845;SDS011;8539;53.188;8.696;2023-12-04T00:33:51;35.45;;;18.85;;
16845;SDS011;8539;53.188;8.696;2023-12-04T00:36:17;38.15;;;20.40;;
16845;SDS011;8539;53.188;8.696;2023-12-04T00:38:45;42.35;;;19.90;;
16845;SDS011;8539;53.188;8.696;2023-12-04T00:41:12;40.05;;;18.85;;
16845;SDS011;8539;53.188;8.696;2023-12-04T00:43:38;40.80;;;21.55;;
16845;SDS011;8539;53.188;8.696;2023-12-04T00:46:05;40.35;;;20.30;;
16845;SDS011;8539;53.188;8.696;2023-12-04T00:48:31;40.70;;;21.52;;
16845;SDS011;8539;53.188;8.696;2023-12-04T00:50:57;39.80;;;18.55;;
16845;SDS011;8539;53.188;8.696;2023-12-04T00:53:24;42.45;;;20.45;;
16845;SDS011;8539;53.188;8.696;2023-12-04T00:55:50;36.28;;;18.92;;
16845;SDS011;8539;53.188;8.696;2023-12-04T00:58:16;42.70;;;21.17;;
16845;SDS011;8539;53.188;8.696;2023-12-04T01:00:42;33.90;;;19.15;;
16845;SDS011;8539;53.188;8.696;2023-12-04T01:03:08;36.10;;;20.52;;
16845;SDS011;8539;53.188;8.696;2023-12-04T01:05:35;36.75;;;17.60;;
16845;SDS011;8539;53.188;8.696;2023-12-04T01:08:01;42.63;;;21.63;;
16845;SDS011;8539;53.188;8.696;2023-12-04T01:10:29;37.65;;;19.83;;
16845;SDS011;8539;53.188;8.696;2023-12-04T01:12:55;40.85;;;18.80;;
16845;SDS011;8539;53.188;8.696;2023-12-04T01:15:21;34.20;;;18.90;;
16845;SDS011;8539;53.188;8.696;2023-12-04T01:17:49;37.40;;;19.65;;
16845;SDS011;8539;53.188;8.696;2023-12-04T01:20:15;39.75;;;21.23;;
16845;SDS011;8539;53.188;8.696;2023-12-04T01:22:41;40.05;;;20.08;;
16845;SDS011;8539;53.188;8.696;2023-12-04T01:25:07;37.35;;;18.60;;
16845;SDS011;8539;53.188;8.696;2023-12-04T01:27:34;40.60;;;21.92;;
16845;SDS011;8539;53.188;8.696;2023-12-04T01:30:04;35.42;;;19.23;;
16845;SDS011;8539;53.188;8.696;2023-12-04T01:32:31;38.30;;;20.38;;
16845;SDS011;8539;53.188;8.696;2023-12-04T01:34:58;36.17;;;20.02;;
16845;SDS011;8539;53.188;8.696;2023-12-04T01:37:24;33.67;;;18.40;;
16845;SDS011;8539;53.188;8.696;2023-12-04T01:39:50;36.03;;;17.95;;
16845;SDS011;8539;53.188;8.696;2023-12-04T01:42:16;33.05;;;18.98;;
16845;SDS011;8539;53.188;8.696;2023-12-04T01:44:42;34.83;;;17.52;;
16845;SDS011;8539;53.188;8.696;2023-12-04T01:47:09;38.47;;;17.92;;
16845;SDS011;8539;53.188;8.696;2023-12-04T01:49:35;36.97;;;19.42;;
16845;SDS011;8539;53.188;8.696;2023-12-04T01:52:02;37.55;;;18.80;;
16845;SDS011;8539;53.188;8.696;2023-12-04T01:54:29;36.90;;;19.50;;
16845;SDS011;8539;53.188;8.696;2023-12-04T01:56:56;36.95;;;19.50;;
16845;SDS011;8539;53.188;8.696;2023-12-04T01:59:23;40.15;;;19.33;;
16845;SDS011;8539;53.188;8.696;2023-12-04T02:01:51;33.25;;;20.10;;
16845;SDS011;8539;53.188;8.696;2023-12-04T02:04:18;37.58;;;19.90;;
16845;SDS011;8539;53.188;8.696;2023-12-04T02:06:45;37.55;;;17.60;;
16845;SDS011;8539;53.188;8.696;2023-12-04T02:09:11;32.97;;;18.00;;
16845;SDS011;8539;53.188;8.696;2023-12-04T02:11:38;36.05;;;18.60;;
16845;SDS011;8539;53.188;8.696;2023-12-04T02:14:05;37.13;;;19.85;;
16845;SDS011;8539;53.188;8.696;2023-12-04T02:16:32;42.58;;;20.60;;
16845;SDS011;8539;53.188;8.696;2023-12-04T02:19:07;37.88;;;18.98;;
16845;SDS011;8539;53.188;8.696;2023-12-04T02:21:34;36.65;;;19.02;;
16845;SDS011;8539;53.188;8.696;2023-12-04T02:24:00;37.42;;;19.17;;
16845;SDS011;8539;53.188;8.696;2023-12-04T02:26:31;36.80;;;18.55;;
16845;SDS011;8539;53.188;8.696;2023-12-04T02:29:01;44.00;;;22.17;;
16845;SDS011;8539;53.188;8.696;2023-12-04T02:31:34;39.50;;;19.20;;
16845;SDS011;8539;53.188;8.696;2023-12-04T02:34:03;35.08;;;20.10;;
16845;SDS011;8539;53.188;8.696;2023-12-04T02:36:32;35.53;;;18.67;;
16845;SDS011;8539;53.188;8.696;2023-12-04T02:39:00;33.65;;;18.00;;
16845;SDS011;8539;53.188;8.696;2023-12-04T02:41:26;34.92;;;16.52;;
16845;SDS011;8539;53.188;8.696;2023-12-04T02:43:53;31.67;;;16.80;;
16845;SDS011;8539;53.188;8.696;2023-12-04T02:46:19;32.15;;;16.95;;
16845;SDS011;8539;53.188;8.696;2023-12-04T02:48:45;30.92;;;17.85;;
16845;SDS011;8539;53.188;8.696;2023-12-04T02:51:11;30.50;;;17.42;;
16845;SDS011;8539;53.188;8.696;2023-12-04T02:53:37;35.70;;;18.70;;
16845;SDS011;8539;53.188;8.696;2023-12-04T02:56:03;33.63;;;17.92;;
16845;SDS011;8539;53.188;8.696;2023-12-04T02:58:29;33.92;;;17.83;;
16845;SDS011;8539;53.188;8.696;2023-12-04T03:00:56;29.80;;;16.38;;
16845;SDS011;8539;53.188;8.696;2023-12-04T03:03:23;33.28;;;17.52;;
16845;SDS011;8539;53.188;8.696;2023-12-04T03:05:49;32.25;;;17.10;;
16845;SDS011;8539;53.188;8.696;2023-12-04T03:08:15;36.92;;;19.27;;
16845;SDS011;8539;53.188;8.696;2023-12-04T03:10:41;35.55;;;17.65;;
16845;SDS011;8539;53.188;8.696;2023-12-04T03:13:07;36.55;;;19.55;;
16845;SDS011;8539;53.188;8.696;2023-12-04T03:15:33;33.78;;;17.13;;
16845;SDS011;8539;53.188;8.696;2023-12-04T03:17:59;36.90;;;18.35;;
16845;SDS011;8539;53.188;8.696;2023-12-04T03:20:26;31.45;;;16.42;;
16845;SDS011;8539;53.188;8.696;2023-12-04T03:22:52;31.13;;;17.02;;
16845;SDS011;8539;53.188;8.696;2023-12-04T03:25:18;33.83;;;16.83;;
16845;SDS011;8539;53.188;8.696;2023-12-04T03:27:44;32.05;;;17.23;;
16845;SDS011;8539;53.188;8.696;2023-12-04T03:30:10;31.15;;;16.60;;
16845;SDS011;8539;53.188;8.696;2023-12-04T03:32:37;33.17;;;17.95;;
16845;SDS011;8539;53.188;8.696;2023-12-04T03:35:03;36.85;;;17.20;;
16845;SDS011;8539;53.188;8.696;2023-12-04T03:37:29;35.25;;;18.52;;
16845;SDS011;8539;53.188;8.696;2023-12-04T03:39:55;30.23;;;17.35;;
16845;SDS011;8539;53.188;8.696;2023-12-04T03:42:21;33.15;;;16.38;;
16845;SDS011;8539;53.188;8.696;2023-12-04T03:44:47;37.20;;;18.20;;
16845;SDS011;8539;53.188;8.696;2023-12-04T03:47:13;34.58;;;17.40;;
16845;SDS011;8539;53.188;8.696;2023-12-04T03:49:39;33.92;;;17.85;;
16845;SDS011;8539;53.188;8.696;2023-12-04T03:52:05;32.67;;;16.60;;
16845;SDS011;8539;53.188;8.696;2023-12-04T03:54:31;30.83;;;16.58;;
16845;SDS011;8539;53.188;8.696;2023-12-04T03:56:57;35.53;;;17.58;;
16845;SDS011;8539;53.188;8.696;2023-12-04T03:59:23;32.72;;;16.65;;
16845;SDS011;8539;53.188;8.696;2023-12-04T04:01:49;37.28;;;18.55;;
16845;SDS011;8539;53.188;8.696;2023-12-04T04:04:15;37.28;;;18.20;;
16845;SDS011;8539;53.188;8.696;2023-12-04T04:06:42;36.42;;;18.00;;
16845;SDS011;8539;53.188;8.696;2023-12-04T04:09:08;35.50;;;18.20;;
16845;SDS011;8539;53.188;8.696;2023-12-04T04:11:34;34.35;;;17.23;;
16845;SDS011;8539;53.188;8.696;2023-12-04T04:14:00;34.33;;;17.83;;
16845;SDS011;8539;53.188;8.696;2023-12-04T04:16:27;35.03;;;18.17;;
16845;SDS011;8539;53.188;8.696;2023-12-04T04:18:53;33.88;;;17.77;;
16845;SDS011;8539;53.188;8.696;2023-12-04T04:21:19;37.45;;;18.73;;
16845;SDS011;8539;53.188;8.696;2023-12-04T04:23:46;37.42;;;19.13;;
16845;SDS011;8539;53.188;8.696;2023-12-04T04:26:12;30.88;;;16.55;;
16845;SDS011;8539;53.188;8.696;2023-12-04T04:28:39;33.67;;;17.20;;
16845;SDS011;8539;53.188;8.696;2023-12-04T04:31:05;31.27;;;17.13;;
16845;SDS011;8539;53.188;8.696;2023-12-04T04:33:32;31.13;;;16.75;;
16845;SDS011;8539;53.188;8.696;2023-12-04T04:35:58;33.97;;;16.48;;
16845;SDS011;8539;53.188;8.696;2023-12-04T04:38:24;31.95;;;19.00;;
16845;SDS011;8539;53.188;8.696;2023-12-04T04:40:50;35.55;;;17.02;;
16845;SDS011;8539;53.188;8.696;2023-12-04T04:43:18;33.17;;;18.00;;
16845;SDS011;8539;53.188;8.696;2023-12-04T04:45:45;36.00;;;16.67;;
16845;SDS011;8539;53.188;8.696;2023-12-04T04:48:11;36.33;;;17.23;;
16845;SDS011;8539;53.188;8.696;2023-12-04T04:50:37;33.20;;;17.20;;
16845;SDS011;8539;53.188;8.696;2023-12-04T04:53:03;30.80;;;15.63;;
16845;SDS011;8539;53.188;8.696;2023-12-04T04:55:29;34.03;;;15.88;;
16845;SDS011;8539;53.188;8.696;2023-12-04T04:57:57;35.80;;;18.00;;
16845;SDS011;8539;53.188;8.696;2023-12-04T05:00:23;36.78;;;16.60;;
16845;SDS011;8539;53.188;8.696;2023-12-04T05:02:49;32.28;;;17.17;;
16845;SDS011;8539;53.188;8.696;2023-12-04T05:05:15;32.60;;;16.77;;
16845;SDS011;8539;53.188;8.696;2023-12-04T05:07:41;31.88;;;16.13;;
16845;SDS011;8539;53.188;8.696;2023-12-04T05:10:07;31.17;;;16.75;;
16845;SDS011;8539;53.188;8.696;2023-12-04T05:12:34;36.33;;;18.13;;
16845;SDS011;8539;53.188;8.696;2023-12-04T05:15:00;38.15;;;18.48;;
16845;SDS011;8539;53.188;8.696;2023-12-04T05:17:26;40.03;;;18.00;;
16845;SDS011;8539;53.188;8.696;2023-12-04T05:19:52;31.65;;;15.77;;
16845;SDS011;8539;53.188;8.696;2023-12-04T05:22:18;37.03;;;16.88;;
16845;SDS011;8539;53.188;8.696;2023-12-04T05:24:44;32.70;;;17.30;;
16845;SDS011;8539;53.188;8.696;2023-12-04T05:27:10;32.60;;;16.60;;
16845;SDS011;8539;53.188;8.696;2023-12-04T05:29:36;36.40;;;18.50;;
16845;SDS011;8539;53.188;8.696;2023-12-04T05:32:02;32.10;;;16.20;;
16845;SDS011;8539;53.188;8.696;2023-12-04T05:34:28;41.75;;;19.75;;
16845;SDS011;8539;53.188;8.696;2023-12-04T05:36:54;33.47;;;15.35;;
16845;SDS011;8539;53.188;8.696;2023-12-04T05:39:20;38.47;;;17.45;;
16845;SDS011;8539;53.188;8.696;2023-12-04T05:41:46;35.83;;;16.92;;
16845;SDS011;8539;53.188;8.696;2023-12-04T05:44:13;33.30;;;16.05;;
16845;SDS011;8539;53.188;8.696;2023-12-04T05:46:39;36.13;;;16.75;;
16845;SDS011;8539;53.188;8.696;2023-12-04T05:49:05;33.33;;;16.67;;
16845;SDS011;8539;53.188;8.696;2023-12-04T05:51:31;33.90;;;17.20;;
16845;SDS011;8539;53.188;8.696;2023-12-04T05:53:58;35.22;;;16.98;;
16845;SDS011;8539;53.188;8.696;2023-12-04T05:56:24;34.22;;;17.20;;
16845;SDS011;8539;53.188;8.696;2023-12-04T05:58:50;41.10;;;18.08;;
16845;SDS011;8539;53.188;8.696;2023-12-04T06:01:16;33.38;;;17.13;;
16845;SDS011;8539;53.188;8.696;2023-12-04T06:03:42;34.45;;;16.88;;
16845;SDS011;8539;53.188;8.696;2023-12-04T06:06:08;47.10;;;17.25;;
16845;SDS011;8539;53.188;8.696;2023-12-04T06:08:34;33.88;;;17.42;;
16845;SDS011;8539;53.188;8.696;2023-12-04T06:11:00;30.70;;;15.73;;
16845;SDS011;8539;53.188;8.696;2023-12-04T06:13:26;32.40;;;16.50;;
16845;SDS011;8539;53.188;8.696;2023-12-04T06:15:52;40.92;;;18.55;;
16845;SDS011;8539;53.188;8.696;2023-12-04T06:18:18;28.90;;;15.95;;
16845;SDS011;8539;53.188;8.696;2023-12-04T06:20:46;35.03;;;17.25;;
16845;SDS011;8539;53.188;8.696;2023-12-04T06:23:12;30.27;;;16.23;;
16845;SDS011;8539;53.188;8.696;2023-12-04T06:25:38;31.80;;;16.55;;
16845;SDS011;8539;53.188;8.696;2023-12-04T06:28:05;33.22;;;16.95;;
16845;SDS011;8539;53.188;8.696;2023-12-04T06:30:31;37.78;;;17.08;;
16845;SDS011;8539;53.188;8.696;2023-12-04T06:32:57;31.58;;;17.30;;
16845;SDS011;8539;53.188;8.696;2023-12-04T06:35:23;35.85;;;17.02;;
16845;SDS011;8539;53.188;8.696;2023-12-04T06:37:50;39.40;;;19.08;;
16845;SDS011;8539;53.188;8.696;2023-12-04T06:40:19;39.53;;;18.67;;
16845;SDS011;8539;53.188;8.696;2023-12-04T06:42:45;35.78;;;17.35;;
16845;SDS011;8539;53.188;8.696;2023-12-04T06:45:12;29.90;;;16.92;;
16845;SDS011;8539;53.188;8.696;2023-12-04T06:47:40;30.90;;;16.75;;
16845;SDS011;8539;53.188;8.696;2023-12-04T06:50:09;33.63;;;19.17;;
16845;SDS011;8539;53.188;8.696;2023-12-04T06:52:35;35.45;;;18.45;;
16845;SDS011;8539;53.188;8.696;2023-12-04T06:55:00;32.40;;;17.48;;
16845;SDS011;8539;53.188;8.696;2023-12-04T06:57:26;40.58;;;19.45;;
16845;SDS011;8539;53.188;8.696;2023-12-04T06:59:53;24.95;;;15.30;;
16845;SDS011;8539;53.188;8.696;2023-12-04T07:02:19;36.88;;;18.52;;
16845;SDS011;8539;53.188;8.696;2023-12-04T07:04:44;34.00;;;17.48;;
16845;SDS011;8539;53.188;8.696;2023-12-04T07:07:10;33.72;;;17.55;;
16845;SDS011;8539;53.188;8.696;2023-12-04T07:09:37;31.27;;;16.55;;
16845;SDS011;8539;53.188;8.696;2023-12-04T07:12:03;32.42;;;17.00;;
16845;SDS011;8539;53.188;8.696;2023-12-04T07:14:30;40.15;;;17.95;;
16845;SDS011;8539;53.188;8.696;2023-12-04T07:16:56;34.40;;;17.40;;
16845;SDS011;8539;53.188;8.696;2023-12-04T07:19:22;37.42;;;19.23;;
16845;SDS011;8539;53.188;8.696;2023-12-04T07:21:49;29.33;;;16.02;;
16845;SDS011;8539;53.188;8.696;2023-12-04T07:24:15;32.35;;;17.58;;
16845;SDS011;8539;53.188;8.696;2023-12-04T07:26:41;32.35;;;17.83;;
16845;SDS011;8539;53.188;8.696;2023-12-04T07:29:07;31.75;;;15.35;;
16845;SDS011;8539;53.188;8.696;2023-12-04T07:31:33;33.75;;;17.10;;
16845;SDS011;8539;53.188;8.696;2023-12-04T07:33:59;32.28;;;17.95;;
16845;SDS011;8539;53.188;8.696;2023-12-04T07:36:27;27.33;;;15.60;;
16845;SDS011;8539;53.188;8.696;2023-12-04T07:38:53;31.90;;;16.15;;
16845;SDS011;8539;53.188;8.696;2023-12-04T07:41:19;31.73;;;16.73;;
16845;SDS011;8539;53.188;8.696;2023-12-04T07:43:47;33.97;;;16.95;;
16845;SDS011;8539;53.188;8.696;2023-12-04T07:46:13;33.08;;;16.50;;
16845;SDS011;8539;53.188;8.696;2023-12-04T07:48:39;36.55;;;16.95;;
16845;SDS011;8539;53.188;8.696;2023-12-04T07:51:06;31.00;;;15.10;;
16845;SDS011;8539;53.188;8.696;2023-12-04T07:53:33;30.23;;;15.63;;
16845;SDS011;8539;53.188;8.696;2023-12-04T07:56:02;36.63;;;17.08;;
16845;SDS011;8539;53.188;8.696;2023-12-04T07:58:29;31.83;;;15.60;;
16845;SDS011;8539;53.188;8.696;2023-12-04T08:00:56;35.45;;;15.15;;
16845;SDS011;8539;53.188;8.696;2023-12-04T08:03:22;29.75;;;15.43;;
16845;SDS011;8539;53.188;8.696;2023-12-04T08:05:50;32.75;;;16.08;;
16845;SDS011;8539;53.188;8.696;2023-12-04T08:08:16;27.90;;;14.40;;
16845;SDS011;8539;53.188;8.696;2023-12-04T08:10:42;29.27;;;15.93;;
16845;SDS011;8539;53.188;8.696;2023-12-04T08:13:08;33.13;;;15.80;;
16845;SDS011;8539;53.188;8.696;2023-12-04T08:15:34;30.98;;;15.82;;
16845;SDS011;8539;53.188;8.696;2023-12-04T08:18:00;30.83;;;14.52;;
16845;SDS011;8539;53.188;8.696;2023-12-04T08:20:26;26.13;;;13.73;;
16845;SDS011;8539;53.188;8.696;2023-12-04T08:22:52;28.00;;;16.27;;
16845;SDS011;8539;53.188;8.696;2023-12-04T08:25:20;32.25;;;15.30;;
16845;SDS011;8539;53.188;8.696;2023-12-04T08:27:46;24.67;;;13.90;;
16845;SDS011;8539;53.188;8.696;2023-12-04T08:30:13;28.95;;;15.52;;
16845;SDS011;8539;53.188;8.696;2023-12-04T08:32:39;29.42;;;15.02;;
16845;SDS011;8539;53.188;8.696;2023-12-04T08:35:05;28.23;;;15.20;;
16845;SDS011;8539;53.188;8.696;2023-12-04T08:37:32;27.25;;;14.68;;
16845;SDS011;8539;53.188;8.696;2023-12-04T08:39:58;25.85;;;14.50;;
16845;SDS011;8539;53.188;8.696;2023-12-04T08:42:23;23.77;;;13.95;;
16845;SDS011;8539;53.188;8.696;2023-12-04T08:44:49;26.60;;;13.90;;
16845;SDS011;8539;53.188;8.696;2023-12-04T08:47:15;22.88;;;13.43;;
16845;SDS011;8539;53.188;8.696;2023-12-04T08:49:41;26.10;;;14.55;;
16845;SDS011;8539;53.188;8.696;2023-12-04T08:52:09;27.35;;;13.68;;
16845;SDS011;8539;53.188;8.696;2023-12-04T08:54:38;23.90;;;14.02;;
16845;SDS011;8539;53.188;8.696;2023-12-04T08:57:06;22.52;;;12.88;;
16845;SDS011;8539;53.188;8.696;2023-12-04T08:59:32;28.73;;;13.20;;
16845;SDS011;8539;53.188;8.696;2023-12-04T09:01:58;22.80;;;12.60;;
16845;SDS011;8539;53.188;8.696;2023-12-04T09:04:24;23.80;;;14.57;;
16845;SDS011;8539;53.188;8.696;2023-12-04T09:06:50;24.00;;;12.77;;
16845;SDS011;8539;53.188;8.696;2023-12-04T09:09:16;34.20;;;13.82;;
16845;SDS011;8539;53.188;8.696;2023-12-04T09:11:42;26.23;;;14.43;;
16845;SDS011;8539;53.188;8.696;2023-12-04T09:14:09;22.70;;;13.23;;
16845;SDS011;8539;53.188;8.696;2023-12-04T09:16:35;22.98;;;12.60;;
16845;SDS011;8539;53.188;8.696;2023-12-04T09:19:01;24.73;;;12.60;;
16845;SDS011;8539;53.188;8.696;2023-12-04T09:21:27;24.85;;;12.90;;
16845;SDS011;8539;53.188;8.696;2023-12-04T09:23:53;27.52;;;14.30;;
16845;SDS011;8539;53.188;8.696;2023-12-04T09:26:19;22.23;;;12.52;;
16845;SDS011;8539;53.188;8.696;2023-12-04T09:28:45;23.63;;;13.57;;
16845;SDS011;8539;53.188;8.696;2023-12-04T09:31:11;24.83;;;13.40;;
16845;SDS011;8539;53.188;8.696;2023-12-04T09:33:38;25.38;;;13.32;;
16845;SDS011;8539;53.188;8.696;2023-12-04T09:36:04;24.08;;;12.57;;
16845;SDS011;8539;53.188;8.696;2023-12-04T09:38:30;23.90;;;13.02;;
16845;SDS011;8539;53.188;8.696;2023-12-04T09:40:59;26.40;;;13.35;;
16845;SDS011;8539;53.188;8.696;2023-12-04T09:43:31;23.73;;;12.88;;
16845;SDS011;8539;53.188;8.696;2023-12-04T09:45:57;20.38;;;12.70;;
16845;SDS011;8539;53.188;8.696;2023-12-04T09:48:25;21.05;;;12.20;;
16845;SDS011;8539;53.188;8.696;2023-12-04T09:50:52;22.83;;;12.32;;
16845;SDS011;8539;53.188;8.696;2023-12-04T09:53:19;19.15;;;11.52;;
16845;SDS011;8539;53.188;8.696;2023-12-04T09:55:50;21.20;;;12.20;;
16845;SDS011;8539;53.188;8.696;2023-12-04T09:58:17;20.00;;;12.13;;
16845;SDS011;8539;53.188;8.696;2023-12-04T10:00:46;22.50;;;12.60;;
16845;SDS011;8539;53.188;8.696;2023-12-04T10:03:13;22.40;;;12.13;;
16845;SDS011;8539;53.188;8.696;2023-12-04T10:05:43;19.35;;;12.30;;
16845;SDS011;8539;53.188;8.696;2023-12-04T10:08:11;20.40;;;12.23;;
16845;SDS011;8539;53.188;8.696;2023-12-04T10:10:37;21.75;;;12.93;;
16845;SDS011;8539;53.188;8.696;2023-12-04T10:13:03;26.20;;;12.77;;
16845;SDS011;8539;53.188;8.696;2023-12-04T10:15:29;20.50;;;11.68;;
16845;SDS011;8539;53.188;8.696;2023-12-04T10:17:55;23.45;;;13.23;;
16845;SDS011;8539;53.188;8.696;2023-12-04T10:20:21;20.48;;;11.13;;
16845;SDS011;8539;53.188;8.696;2023-12-04T10:22:53;23.95;;;11.02;;
16845;SDS011;8539;53.188;8.696;2023-12-04T10:25:24;24.65;;;11.52;;
16845;SDS011;8539;53.188;8.696;2023-12-04T10:27:52;21.52;;;12.63;;
16845;SDS011;8539;53.188;8.696;2023-12-04T10:30:30;19.65;;;11.25;;
16845;SDS011;8539;53.188;8.696;2023-12-04T10:32:57;19.35;;;10.48;;
16845;SDS011;8539;53.188;8.696;2023-12-04T10:35:29;23.58;;;12.15;;
16845;SDS011;8539;53.188;8.696;2023-12-04T10:38:00;21.40;;;11.77;;
16845;SDS011;8539;53.188;8.696;2023-12-04T10:40:28;18.30;;;10.55;;
16845;SDS011;8539;53.188;8.696;2023-12-04T10:45:34;22.30;;;13.25;;
16845;SDS011;8539;53.188;8.696;2023-12-04T10:48:05;21.55;;;12.75;;
16845;SDS011;8539;53.188;8.696;2023-12-04T10:50:32;17.80;;;11.15;;
16845;SDS011;8539;53.188;8.696;2023-12-04T10:53:05;20.25;;;11.38;;
16845;SDS011;8539;53.188;8.696;2023-12-04T10:55:38;24.65;;;12.80;;
16845;SDS011;8539;53.188;8.696;2023-12-04T10:58:05;19.60;;;11.15;;
16845;SDS011;8539;53.188;8.696;2023-12-04T11:00:39;22.88;;;12.07;;
16845;SDS011;8539;53.188;8.696;2023-12-04T11:03:08;20.00;;;11.68;;
16845;SDS011;8539;53.188;8.696;2023-12-04T11:05:39;24.08;;;12.00;;
16845;SDS011;8539;53.188;8.696;2023-12-04T11:08:06;18.88;;;12.05;;
16845;SDS011;8539;53.188;8.696;2023-12-04T11:10:37;19.45;;;11.50;;
16845;SDS011;8539;53.188;8.696;2023-12-04T11:13:15;19.65;;;11.55;;
16845;SDS011;8539;53.188;8.696;2023-12-04T11:15:47;21.88;;;10.88;;
16845;SDS011;8539;53.188;8.696;2023-12-04T11:18:16;18.27;;;11.80;;
16845;SDS011;8539;53.188;8.696;2023-12-04T11:20:56;21.50;;;11.98;;
16845;SDS011;8539;53.188;8.696;2023-12-04T11:23:25;20.13;;;11.82;;
16845;SDS011;8539;53.188;8.696;2023-12-04T11:25:51;21.85;;;12.38;;
16845;SDS011;8539;53.188;8.696;2023-12-04T11:28:18;20.35;;;12.05;;
16845;SDS011;8539;53.188;8.696;2023-12-04T11:30:45;19.17;;;11.68;;
16845;SDS011;8539;53.188;8.696;2023-12-04T11:33:13;19.75;;;11.00;;
16845;SDS011;8539;53.188;8.696;2023-12-04T11:35:39;18.02;;;11.93;;
16845;SDS011;8539;53.188;8.696;2023-12-04T11:38:05;18.70;;;10.38;;
16845;SDS011;8539;53.188;8.696;2023-12-04T11:40:35;19.88;;;11.75;;
16845;SDS011;8539;53.188;8.696;2023-12-04T11:43:24;15.50;;;10.35;;
16845;SDS011;8539;53.188;8.696;2023-12-04T11:45:52;19.25;;;11.02;;
16845;SDS011;8539;53.188;8.696;2023-12-04T11:48:22;18.08;;;11.52;;
16845;SDS011;8539;53.188;8.696;2023-12-04T11:50:49;19.95;;;12.60;;
16845;SDS011;8539;53.188;8.696;2023-12-04T11:53:16;19.58;;;10.70;;
16845;SDS011;8539;53.188;8.696;2023-12-04T11:55:43;19.10;;;10.90;;
16845;SDS011;8539;53.188;8.696;2023-12-04T11:58:09;17.17;;;10.18;;
16845;SDS011;8539;53.188;8.696;2023-12-04T12:00:37;19.65;;;11.38;;
16845;SDS011;8539;53.188;8.696;2023-12-04T12:03:05;17.80;;;10.55;;
16845;SDS011;8539;53.188;8.696;2023-12-04T12:05:32;18.67;;;11.00;;
16845;SDS011;8539;53.188;8.696;2023-12-04T12:08:00;17.30;;;9.77;;
16845;SDS011;8539;53.188;8.696;2023-12-04T12:10:28;17.80;;;10.77;;
16845;SDS011;8539;53.188;8.696;2023-12-04T12:12:55;14.80;;;10.35;;
16845;SDS011;8539;53.188;8.696;2023-12-04T12:15:25;17.67;;;11.13;;
16845;SDS011;8539;53.188;8.696;2023-12-04T12:17:51;14.85;;;9.90;;
16845;SDS011;8539;53.188;8.696;2023-12-04T12:20:17;16.02;;;9.63;;
16845;SDS011;8539;53.188;8.696;2023-12-04T12:22:44;18.35;;;11.05;;
16845;SDS011;8539;53.188;8.696;2023-12-04T12:25:11;19.13;;;10.73;;
16845;SDS011;8539;53.188;8.696;2023-12-04T12:27:38;17.27;;;9.65;;
16845;SDS011;8539;53.188;8.696;2023-12-04T12:30:05;19.80;;;10.43;;
16845;SDS011;8539;53.188;8.696;2023-12-04T12:32:32;21.60;;;11.23;;
16845;SDS011;8539;53.188;8.696;2023-12-04T12:34:58;17.60;;;10.98;;
16845;SDS011;8539;53.188;8.696;2023-12-04T12:37:25;18.02;;;10.27;;
16845;SDS011;8539;53.188;8.696;2023-12-04T12:39:51;20.80;;;11.02;;
16845;SDS011;8539;53.188;8.696;2023-12-04T12:42:21;18.25;;;10.70;;
16845;SDS011;8539;53.188;8.696;2023-12-04T12:44:48;15.77;;;9.80;;
16845;SDS011;8539;53.188;8.696;2023-12-04T12:47:14;18.25;;;10.90;;
16845;SDS011;8539;53.188;8.696;2023-12-04T12:49:41;16.85;;;9.57;;
16845;SDS011;8539;53.188;8.696;2023-12-04T12:52:07;15.65;;;9.82;;
16845;SDS011;8539;53.188;8.696;2023-12-04T12:54:36;14.77;;;9.48;;
16845;SDS011;8539;53.188;8.696;2023-12-04T12:57:03;16.60;;;9.43;;
16845;SDS011;8539;53.188;8.696;2023-12-04T12:59:29;18.60;;;10.48;;
16845;SDS011;8539;53.188;8.696;2023-12-04T13:01:56;15.57;;;11.32;;
16845;SDS011;8539;53.188;8.696;2023-12-04T13:04:26;17.90;;;11.00;;
16845;SDS011;8539;53.188;8.696;2023-12-04T13:09:25;14.38;;;10.27;;
16845;SDS011;8539;53.188;8.696;2023-12-04T13:11:51;19.58;;;10.23;;
16845;SDS011;8539;53.188;8.696;2023-12-04T13:14:17;17.00;;;10.35;;
16845;SDS011;8539;53.188;8.696;2023-12-04T13:16:43;16.55;;;9.68;;
16845;SDS011;8539;53.188;8.696;2023-12-04T13:19:10;17.90;;;9.18;;
16845;SDS011;8539;53.188;8.696;2023-12-04T13:21:36;15.40;;;9.68;;
16845;SDS011;8539;53.188;8.696;2023-12-04T13:24:02;16.60;;;9.93;;
16845;SDS011;8539;53.188;8.696;2023-12-04T13:26:33;15.77;;;10.60;;
16845;SDS011;8539;53.188;8.696;2023-12-04T13:28:59;18.73;;;11.10;;
16845;SDS011;8539;53.188;8.696;2023-12-04T13:31:25;17.48;;;10.25;;
16845;SDS011;8539;53.188;8.696;2023-12-04T13:33:53;15.93;;;10.02;;
16845;SDS011;8539;53.188;8.696;2023-12-04T13:36:19;15.18;;;8.63;;
16845;SDS011;8539;53.188;8.696;2023-12-04T13:38:45;16.40;;;9.90;;
16845;SDS011;8539;53.188;8.696;2023-12-04T13:41:11;16.45;;;9.40;;
16845;SDS011;8539;53.188;8.696;2023-12-04T13:43:56;18.83;;;9.18;;
16845;SDS011;8539;53.188;8.696;2023-12-04T13:46:25;17.00;;;10.00;;
16845;SDS011;8539;53.188;8.696;2023-12-04T13:48:58;18.30;;;10.23;;
16845;SDS011;8539;53.188;8.696;2023-12-04T13:51:24;16.63;;;10.00;;
16845;SDS011;8539;53.188;8.696;2023-12-04T13:53:53;16.67;;;10.38;;
16845;SDS011;8539;53.188;8.696;2023-12-04T13:56:27;19.05;;;10.63;;
16845;SDS011;8539;53.188;8.696;2023-12-04T13:59:17;14.27;;;9.00;;
16845;SDS011;8539;53.188;8.696;2023-12-04T14:01:46;18.70;;;10.45;;
16845;SDS011;8539;53.188;8.696;2023-12-04T14:04:12;21.13;;;10.80;;
16845;SDS011;8539;53.188;8.696;2023-12-04T14:06:38;16.17;;;9.95;;
16845;SDS011;8539;53.188;8.696;2023-12-04T14:09:04;16.15;;;10.43;;
16845;SDS011;8539;53.188;8.696;2023-12-04T14:11:36;16.60;;;9.32;;
16845;SDS011;8539;53.188;8.696;2023-12-04T14:14:02;19.58;;;11.13;;
16845;SDS011;8539;53.188;8.696;2023-12-04T14:16:29;16.88;;;10.35;;
16845;SDS011;8539;53.188;8.696;2023-12-04T14:18:56;14.20;;;9.95;;
16845;SDS011;8539;53.188;8.696;2023-12-04T14:21:22;16.17;;;10.20;;
16845;SDS011;8539;53.188;8.696;2023-12-04T14:23:49;15.93;;;9.95;;
16845;SDS011;8539;53.188;8.696;2023-12-04T14:26:15;18.38;;;10.45;;
16845;SDS011;8539;53.188;8.696;2023-12-04T14:28:41;14.60;;;8.80;;
16845;SDS011;8539;53.188;8.696;2023-12-04T14:31:07;16.13;;;9.82;;
16845;SDS011;8539;53.188;8.696;2023-12-04T14:33:34;15.93;;;10.35;;
16845;SDS011;8539;53.188;8.696;2023-12-04T14:36:01;16.42;;;9.30;;
16845;SDS011;8539;53.188;8.696;2023-12-04T14:38:27;15.43;;;9.32;;
16845;SDS011;8539;53.188;8.696;2023-12-04T14:40:55;16.88;;;9.20;;